sensor_id;sensor_type;location;lat;lon;timestamp;temperature;humidity
79301;SHT31;68755;51.984;5.646;2024-01-16T00:00:13;2.0;77.8
79301;SHT31;68755;51.984;5.646;2024-01-16T00:02:43;2.0;77.8
79301;SHT31;68755;51.984;5.646;2024-01-16T00:05:12;2.0;77.9
79301;SHT31;68755;51.984;5.646;2024-01-16T00:07:42;1.9;78.1
79301;SHT31;68755;51.984;5.646;2024-01-16T00:10:11;1.9;78.0
79301;SHT31;68755;51.984;5.646;2024-01-16T00:12:41;1.9;77.9
79301;SHT31;68755;51.984;5.646;2024-01-16T00:15:10;1.9;77.9
79301;SHT31;68755;51.984;5.646;2024-01-16T00:17:40;1.9;77.8
79301;SHT31;68755;51.984;5.646;2024-01-16T00:20:10;1.8;77.8
79301;SHT31;68755;51.984;5.646;2024-01-16T00:22:40;1.8;77.7
79301;SHT31;68755;51.984;5.646;2024-01-16T00:25:10;1.8;77.9
79301;SHT31;68755;51.984;5.646;2024-01-16T00:27:40;1.8;77.8
79301;SHT31;68755;51.984;5.646;2024-01-16T00:30:10;1.8;77.7
79301;SHT31;68755;51.984;5.646;2024-01-16T00:32:40;1.7;77.6
79301;SHT31;68755;51.984;5.646;2024-01-16T00:35:12;1.7;78.0
79301;SHT31;68755;51.984;5.646;2024-01-16T00:37:42;1.7;78.1
79301;SHT31;68755;51.984;5.646;2024-01-16T00:40:12;1.7;78.4
79301;SHT31;68755;51.984;5.646;2024-01-16T00:42:43;1.7;78.6
79301;SHT31;68755;51.984;5.646;2024-01-16T00:45:12;1.7;78.4
79301;SHT31;68755;51.984;5.646;2024-01-16T00:47:44;1.7;78.3
79301;SHT31;68755;51.984;5.646;2024-01-16T00:50:13;1.7;78.2
79301;SHT31;68755;51.984;5.646;2024-01-16T00:52:43;1.7;78.4
79301;SHT31;68755;51.984;5.646;2024-01-16T00:55:12;1.7;78.7
79301;SHT31;68755;51.984;5.646;2024-01-16T00:57:42;1.7;79.0
79301;SHT31;68755;51.984;5.646;2024-01-16T01:00:12;1.7;79.3
79301;SHT31;68755;51.984;5.646;2024-01-16T01:02:42;1.8;79.3
79301;SHT31;68755;51.984;5.646;2024-01-16T01:05:12;1.8;79.3
79301;SHT31;68755;51.984;5.646;2024-01-16T01:07:41;1.8;79.2
79301;SHT31;68755;51.984;5.646;2024-01-16T01:10:11;1.8;79.0
79301;SHT31;68755;51.984;5.646;2024-01-16T01:12:41;1.8;78.6
79301;SHT31;68755;51.984;5.646;2024-01-16T01:15:11;1.8;78.5
79301;SHT31;68755;51.984;5.646;2024-01-16T01:17:41;1.8;78.6
79301;SHT31;68755;51.984;5.646;2024-01-16T01:20:11;1.8;78.8
79301;SHT31;68755;51.984;5.646;2024-01-16T01:22:43;1.8;78.9
79301;SHT31;68755;51.984;5.646;2024-01-16T01:25:13;1.8;78.8
79301;SHT31;68755;51.984;5.646;2024-01-16T01:27:45;1.8;78.9
79301;SHT31;68755;51.984;5.646;2024-01-16T01:30:15;1.8;78.9
79301;SHT31;68755;51.984;5.646;2024-01-16T01:32:44;1.8;78.8
79301;SHT31;68755;51.984;5.646;2024-01-16T01:35:14;1.8;78.7
79301;SHT31;68755;51.984;5.646;2024-01-16T01:37:47;1.8;78.6
79301;SHT31;68755;51.984;5.646;2024-01-16T01:40:16;1.8;78.6
79301;SHT31;68755;51.984;5.646;2024-01-16T01:42:48;1.8;78.5
79301;SHT31;68755;51.984;5.646;2024-01-16T01:45:18;1.7;78.6
79301;SHT31;68755;51.984;5.646;2024-01-16T01:47:49;1.7;78.6
79301;SHT31;68755;51.984;5.646;2024-01-16T01:50:19;1.7;78.5
79301;SHT31;68755;51.984;5.646;2024-01-16T01:52:48;1.7;78.5
79301;SHT31;68755;51.984;5.646;2024-01-16T01:55:18;1.7;78.6
79301;SHT31;68755;51.984;5.646;2024-01-16T01:57:48;1.7;78.7
79301;SHT31;68755;51.984;5.646;2024-01-16T02:00:18;1.7;78.8
79301;SHT31;68755;51.984;5.646;2024-01-16T02:02:49;1.7;79.2
79301;SHT31;68755;51.984;5.646;2024-01-16T02:05:19;1.7;79.2
79301;SHT31;68755;51.984;5.646;2024-01-16T02:07:49;1.7;79.2
79301;SHT31;68755;51.984;5.646;2024-01-16T02:10:19;1.7;79.2
79301;SHT31;68755;51.984;5.646;2024-01-16T02:12:48;1.7;79.4
79301;SHT31;68755;51.984;5.646;2024-01-16T02:15:18;1.7;79.6
79301;SHT31;68755;51.984;5.646;2024-01-16T02:17:49;1.7;79.8
79301;SHT31;68755;51.984;5.646;2024-01-16T02:20:18;1.8;80.0
79301;SHT31;68755;51.984;5.646;2024-01-16T02:22:52;1.8;80.1
79301;SHT31;68755;51.984;5.646;2024-01-16T02:25:25;1.8;80.3
79301;SHT31;68755;51.984;5.646;2024-01-16T02:27:54;1.8;80.4
79301;SHT31;68755;51.984;5.646;2024-01-16T02:30:24;1.8;80.5
79301;SHT31;68755;51.984;5.646;2024-01-16T02:32:54;1.8;80.7
79301;SHT31;68755;51.984;5.646;2024-01-16T02:35:23;1.8;80.9
79301;SHT31;68755;51.984;5.646;2024-01-16T02:37:55;1.8;81.1
79301;SHT31;68755;51.984;5.646;2024-01-16T02:40:24;1.9;81.3
79301;SHT31;68755;51.984;5.646;2024-01-16T02:42:54;1.9;81.4
79301;SHT31;68755;51.984;5.646;2024-01-16T02:45:24;1.9;81.5
79301;SHT31;68755;51.984;5.646;2024-01-16T02:47:54;1.9;81.6
79301;SHT31;68755;51.984;5.646;2024-01-16T02:50:24;1.9;81.7
79301;SHT31;68755;51.984;5.646;2024-01-16T02:52:54;2.0;81.7
79301;SHT31;68755;51.984;5.646;2024-01-16T02:55:25;2.0;81.7
79301;SHT31;68755;51.984;5.646;2024-01-16T02:57:54;2.0;81.6
79301;SHT31;68755;51.984;5.646;2024-01-16T03:00:24;2.0;81.6
79301;SHT31;68755;51.984;5.646;2024-01-16T03:02:54;2.1;81.5
79301;SHT31;68755;51.984;5.646;2024-01-16T03:05:23;2.1;81.4
79301;SHT31;68755;51.984;5.646;2024-01-16T03:07:53;2.1;81.2
79301;SHT31;68755;51.984;5.646;2024-01-16T03:10:22;2.1;81.0
79301;SHT31;68755;51.984;5.646;2024-01-16T03:12:52;2.2;80.8
79301;SHT31;68755;51.984;5.646;2024-01-16T03:15:22;2.2;80.7
79301;SHT31;68755;51.984;5.646;2024-01-16T03:17:52;2.2;80.7
79301;SHT31;68755;51.984;5.646;2024-01-16T03:20:21;2.2;81.0
79301;SHT31;68755;51.984;5.646;2024-01-16T03:22:54;2.3;80.8
79301;SHT31;68755;51.984;5.646;2024-01-16T03:25:24;2.5;80.2
79301;SHT31;68755;51.984;5.646;2024-01-16T03:27:55;2.6;79.6
79301;SHT31;68755;51.984;5.646;2024-01-16T03:30:25;2.7;78.9
79301;SHT31;68755;51.984;5.646;2024-01-16T03:32:55;2.7;78.5
79301;SHT31;68755;51.984;5.646;2024-01-16T03:35:24;2.7;78.7
79301;SHT31;68755;51.984;5.646;2024-01-16T03:37:54;2.8;78.2
79301;SHT31;68755;51.984;5.646;2024-01-16T03:40:23;2.8;77.7
79301;SHT31;68755;51.984;5.646;2024-01-16T03:42:53;2.8;77.6
79301;SHT31;68755;51.984;5.646;2024-01-16T03:45:23;2.8;77.6
79301;SHT31;68755;51.984;5.646;2024-01-16T03:47:52;2.8;77.6
79301;SHT31;68755;51.984;5.646;2024-01-16T03:50:22;2.7;77.7
79301;SHT31;68755;51.984;5.646;2024-01-16T03:52:51;2.7;77.9
79301;SHT31;68755;51.984;5.646;2024-01-16T03:55:21;2.7;78.0
79301;SHT31;68755;51.984;5.646;2024-01-16T03:57:50;2.6;78.1
79301;SHT31;68755;51.984;5.646;2024-01-16T04:00:22;2.6;78.4
79301;SHT31;68755;51.984;5.646;2024-01-16T04:02:51;2.6;78.6
79301;SHT31;68755;51.984;5.646;2024-01-16T04:05:21;2.5;78.8
79301;SHT31;68755;51.984;5.646;2024-01-16T04:07:50;2.5;78.9
79301;SHT31;68755;51.984;5.646;2024-01-16T04:10:22;2.5;79.1
79301;SHT31;68755;51.984;5.646;2024-01-16T04:12:51;2.5;79.2
79301;SHT31;68755;51.984;5.646;2024-01-16T04:15:21;2.5;79.2
79301;SHT31;68755;51.984;5.646;2024-01-16T04:17:51;2.5;79.2
79301;SHT31;68755;51.984;5.646;2024-01-16T04:20:20;2.4;79.1
79301;SHT31;68755;51.984;5.646;2024-01-16T04:22:52;2.4;79.1
79301;SHT31;68755;51.984;5.646;2024-01-16T04:25:22;2.4;78.9
79301;SHT31;68755;51.984;5.646;2024-01-16T04:27:51;2.4;78.7
79301;SHT31;68755;51.984;5.646;2024-01-16T04:30:21;2.4;78.6
79301;SHT31;68755;51.984;5.646;2024-01-16T04:32:50;2.3;78.6
79301;SHT31;68755;51.984;5.646;2024-01-16T04:35:20;2.3;78.6
79301;SHT31;68755;51.984;5.646;2024-01-16T04:37:50;2.3;78.7
79301;SHT31;68755;51.984;5.646;2024-01-16T04:40:19;2.3;78.9
79301;SHT31;68755;51.984;5.646;2024-01-16T04:42:49;2.2;79.0
79301;SHT31;68755;51.984;5.646;2024-01-16T04:45:18;2.2;79.2
79301;SHT31;68755;51.984;5.646;2024-01-16T04:47:48;2.2;79.3
79301;SHT31;68755;51.984;5.646;2024-01-16T04:50:18;2.2;79.5
79301;SHT31;68755;51.984;5.646;2024-01-16T04:52:49;2.2;79.6
79301;SHT31;68755;51.984;5.646;2024-01-16T04:55:21;2.2;79.6
79301;SHT31;68755;51.984;5.646;2024-01-16T04:57:51;2.2;79.7
79301;SHT31;68755;51.984;5.646;2024-01-16T05:00:21;2.2;79.7
79301;SHT31;68755;51.984;5.646;2024-01-16T05:02:50;2.2;79.8
79301;SHT31;68755;51.984;5.646;2024-01-16T05:05:20;2.2;80.1
79301;SHT31;68755;51.984;5.646;2024-01-16T05:07:50;2.2;80.3
79301;SHT31;68755;51.984;5.646;2024-01-16T05:10:19;2.2;80.4
79301;SHT31;68755;51.984;5.646;2024-01-16T05:12:49;2.2;80.3
79301;SHT31;68755;51.984;5.646;2024-01-16T05:15:19;2.2;80.1
79301;SHT31;68755;51.984;5.646;2024-01-16T05:17:48;2.2;80.0
79301;SHT31;68755;51.984;5.646;2024-01-16T05:20:18;2.2;79.9
79301;SHT31;68755;51.984;5.646;2024-01-16T05:22:48;2.2;79.9
79301;SHT31;68755;51.984;5.646;2024-01-16T05:25:18;2.2;79.8
79301;SHT31;68755;51.984;5.646;2024-01-16T05:27:48;2.2;79.8
79301;SHT31;68755;51.984;5.646;2024-01-16T05:30:20;2.2;79.8
79301;SHT31;68755;51.984;5.646;2024-01-16T05:32:50;2.2;79.8
79301;SHT31;68755;51.984;5.646;2024-01-16T05:35:21;2.2;79.9
79301;SHT31;68755;51.984;5.646;2024-01-16T05:37:51;2.2;80.2
79301;SHT31;68755;51.984;5.646;2024-01-16T05:40:21;2.2;80.2
79301;SHT31;68755;51.984;5.646;2024-01-16T05:42:51;2.2;80.1
79301;SHT31;68755;51.984;5.646;2024-01-16T05:45:21;2.2;80.1
79301;SHT31;68755;51.984;5.646;2024-01-16T05:47:50;2.2;80.1
79301;SHT31;68755;51.984;5.646;2024-01-16T05:50:20;2.3;80.1
79301;SHT31;68755;51.984;5.646;2024-01-16T05:52:49;2.3;80.2
79301;SHT31;68755;51.984;5.646;2024-01-16T05:55:18;2.3;80.3
79301;SHT31;68755;51.984;5.646;2024-01-16T05:57:48;2.3;80.4
79301;SHT31;68755;51.984;5.646;2024-01-16T06:00:18;2.3;80.5
79301;SHT31;68755;51.984;5.646;2024-01-16T06:02:50;2.3;80.5
79301;SHT31;68755;51.984;5.646;2024-01-16T06:05:19;2.3;80.4
79301;SHT31;68755;51.984;5.646;2024-01-16T06:07:49;2.3;80.4
79301;SHT31;68755;51.984;5.646;2024-01-16T06:10:18;2.3;80.4
79301;SHT31;68755;51.984;5.646;2024-01-16T06:12:48;2.4;80.3
79301;SHT31;68755;51.984;5.646;2024-01-16T06:15:17;2.4;80.4
79301;SHT31;68755;51.984;5.646;2024-01-16T06:17:47;2.4;80.5
79301;SHT31;68755;51.984;5.646;2024-01-16T06:20:16;2.4;80.6
79301;SHT31;68755;51.984;5.646;2024-01-16T06:22:47;2.4;80.6
79301;SHT31;68755;51.984;5.646;2024-01-16T06:25:17;2.4;80.7
79301;SHT31;68755;51.984;5.646;2024-01-16T06:27:46;2.4;80.8
79301;SHT31;68755;51.984;5.646;2024-01-16T06:30:16;2.4;80.8
79301;SHT31;68755;51.984;5.646;2024-01-16T06:32:45;2.4;80.8
79301;SHT31;68755;51.984;5.646;2024-01-16T06:35:16;2.4;80.8
79301;SHT31;68755;51.984;5.646;2024-01-16T06:37:46;2.4;80.8
79301;SHT31;68755;51.984;5.646;2024-01-16T06:40:16;2.4;80.8
79301;SHT31;68755;51.984;5.646;2024-01-16T06:42:45;2.4;80.8
79301;SHT31;68755;51.984;5.646;2024-01-16T06:45:15;2.4;80.8
79301;SHT31;68755;51.984;5.646;2024-01-16T06:47:46;2.5;80.8
79301;SHT31;68755;51.984;5.646;2024-01-16T06:50:16;2.5;80.9
79301;SHT31;68755;51.984;5.646;2024-01-16T06:52:45;2.5;81.0
79301;SHT31;68755;51.984;5.646;2024-01-16T06:55:15;2.5;81.0
79301;SHT31;68755;51.984;5.646;2024-01-16T06:57:44;2.5;80.9
79301;SHT31;68755;51.984;5.646;2024-01-16T07:00:15;2.5;80.9
79301;SHT31;68755;51.984;5.646;2024-01-16T07:02:45;2.5;80.8
79301;SHT31;68755;51.984;5.646;2024-01-16T07:05:15;2.5;80.8
79301;SHT31;68755;51.984;5.646;2024-01-16T07:07:45;2.5;80.7
79301;SHT31;68755;51.984;5.646;2024-01-16T07:10:14;2.5;80.7
79301;SHT31;68755;51.984;5.646;2024-01-16T07:12:51;2.5;80.6
79301;SHT31;68755;51.984;5.646;2024-01-16T07:15:22;2.5;80.6
79301;SHT31;68755;51.984;5.646;2024-01-16T07:17:52;2.5;80.4
79301;SHT31;68755;51.984;5.646;2024-01-16T07:20:23;2.5;80.5
79301;SHT31;68755;51.984;5.646;2024-01-16T07:22:53;2.5;80.4
79301;SHT31;68755;51.984;5.646;2024-01-16T07:25:22;2.5;80.4
79301;SHT31;68755;51.984;5.646;2024-01-16T07:27:52;2.5;80.4
79301;SHT31;68755;51.984;5.646;2024-01-16T07:30:21;2.5;80.4
79301;SHT31;68755;51.984;5.646;2024-01-16T07:32:51;2.5;80.3
79301;SHT31;68755;51.984;5.646;2024-01-16T07:35:21;2.5;80.1
79301;SHT31;68755;51.984;5.646;2024-01-16T07:37:51;2.5;80.2
79301;SHT31;68755;51.984;5.646;2024-01-16T07:40:20;2.5;80.2
79301;SHT31;68755;51.984;5.646;2024-01-16T07:42:51;2.5;80.1
79301;SHT31;68755;51.984;5.646;2024-01-16T07:45:20;2.5;80.1
79301;SHT31;68755;51.984;5.646;2024-01-16T07:47:50;2.5;80.1
79301;SHT31;68755;51.984;5.646;2024-01-16T07:50:20;2.5;79.8
79301;SHT31;68755;51.984;5.646;2024-01-16T07:52:49;2.5;79.8
79301;SHT31;68755;51.984;5.646;2024-01-16T07:55:19;2.6;79.6
79301;SHT31;68755;51.984;5.646;2024-01-16T07:57:49;2.6;79.5
79301;SHT31;68755;51.984;5.646;2024-01-16T08:00:21;2.6;79.5
79301;SHT31;68755;51.984;5.646;2024-01-16T08:02:52;2.6;79.4
79301;SHT31;68755;51.984;5.646;2024-01-16T08:05:21;2.6;79.3
79301;SHT31;68755;51.984;5.646;2024-01-16T08:07:53;2.6;79.2
79301;SHT31;68755;51.984;5.646;2024-01-16T08:10:22;2.6;79.2
79301;SHT31;68755;51.984;5.646;2024-01-16T08:12:52;2.6;78.9
79301;SHT31;68755;51.984;5.646;2024-01-16T08:15:21;2.6;78.6
79301;SHT31;68755;51.984;5.646;2024-01-16T08:17:51;2.6;78.7
79301;SHT31;68755;51.984;5.646;2024-01-16T08:20:20;2.6;78.6
79301;SHT31;68755;51.984;5.646;2024-01-16T08:22:50;2.6;78.5
79301;SHT31;68755;51.984;5.646;2024-01-16T08:25:20;2.6;78.4
79301;SHT31;68755;51.984;5.646;2024-01-16T08:27:49;2.6;78.1
79301;SHT31;68755;51.984;5.646;2024-01-16T08:30:19;2.6;78.3
79301;SHT31;68755;51.984;5.646;2024-01-16T08:32:49;2.6;78.3
79301;SHT31;68755;51.984;5.646;2024-01-16T08:35:18;2.6;78.3
79301;SHT31;68755;51.984;5.646;2024-01-16T08:37:48;2.6;78.0
79301;SHT31;68755;51.984;5.646;2024-01-16T08:40:19;2.6;77.7
79301;SHT31;68755;51.984;5.646;2024-01-16T08:42:49;2.6;77.7
79301;SHT31;68755;51.984;5.646;2024-01-16T08:45:22;2.6;77.8
79301;SHT31;68755;51.984;5.646;2024-01-16T08:47:53;2.6;77.7
79301;SHT31;68755;51.984;5.646;2024-01-16T08:50:23;2.7;77.7
79301;SHT31;68755;51.984;5.646;2024-01-16T08:52:52;2.7;77.3
79301;SHT31;68755;51.984;5.646;2024-01-16T08:55:22;2.7;77.2
79301;SHT31;68755;51.984;5.646;2024-01-16T08:57:51;2.7;77.3
79301;SHT31;68755;51.984;5.646;2024-01-16T09:00:21;2.7;77.0
79301;SHT31;68755;51.984;5.646;2024-01-16T09:02:51;2.7;77.2
79301;SHT31;68755;51.984;5.646;2024-01-16T09:05:20;2.7;76.8
79301;SHT31;68755;51.984;5.646;2024-01-16T09:07:52;2.7;76.7
79301;SHT31;68755;51.984;5.646;2024-01-16T09:10:22;2.7;76.6
79301;SHT31;68755;51.984;5.646;2024-01-16T09:12:51;2.7;76.7
79301;SHT31;68755;51.984;5.646;2024-01-16T09:15:21;2.7;76.8
79301;SHT31;68755;51.984;5.646;2024-01-16T09:17:51;2.7;77.0
79301;SHT31;68755;51.984;5.646;2024-01-16T09:20:20;2.7;76.8
79301;SHT31;68755;51.984;5.646;2024-01-16T09:22:51;2.7;76.4
79301;SHT31;68755;51.984;5.646;2024-01-16T09:25:20;2.7;76.4
79301;SHT31;68755;51.984;5.646;2024-01-16T09:27:52;2.8;76.1
79301;SHT31;68755;51.984;5.646;2024-01-16T09:30:21;2.8;75.8
79301;SHT31;68755;51.984;5.646;2024-01-16T09:32:53;2.8;75.8
79301;SHT31;68755;51.984;5.646;2024-01-16T09:35:22;2.8;75.6
79301;SHT31;68755;51.984;5.646;2024-01-16T09:37:52;2.8;75.8
79301;SHT31;68755;51.984;5.646;2024-01-16T09:40:22;2.8;75.9
79301;SHT31;68755;51.984;5.646;2024-01-16T09:42:51;2.8;75.8
79301;SHT31;68755;51.984;5.646;2024-01-16T09:45:24;2.9;76.0
79301;SHT31;68755;51.984;5.646;2024-01-16T09:47:56;3.0;75.0
79301;SHT31;68755;51.984;5.646;2024-01-16T09:50:26;3.1;74.3
79301;SHT31;68755;51.984;5.646;2024-01-16T09:52:55;3.1;74.0
79301;SHT31;68755;51.984;5.646;2024-01-16T09:55:25;3.2;73.7
79301;SHT31;68755;51.984;5.646;2024-01-16T09:57:55;3.2;73.7
79301;SHT31;68755;51.984;5.646;2024-01-16T10:00:29;3.2;73.4
79301;SHT31;68755;51.984;5.646;2024-01-16T10:03:00;3.3;72.8
79301;SHT31;68755;51.984;5.646;2024-01-16T10:05:30;3.3;72.5
79301;SHT31;68755;51.984;5.646;2024-01-16T10:08:01;3.3;72.3
79301;SHT31;68755;51.984;5.646;2024-01-16T10:10:30;3.3;72.4
79301;SHT31;68755;51.984;5.646;2024-01-16T10:13:00;3.2;72.4
79301;SHT31;68755;51.984;5.646;2024-01-16T10:15:33;3.2;72.5
79301;SHT31;68755;51.984;5.646;2024-01-16T10:18:03;3.2;72.6
79301;SHT31;68755;51.984;5.646;2024-01-16T10:20:34;3.1;72.7
79301;SHT31;68755;51.984;5.646;2024-01-16T10:23:04;3.1;72.6
79301;SHT31;68755;51.984;5.646;2024-01-16T10:25:34;3.0;73.3
79301;SHT31;68755;51.984;5.646;2024-01-16T10:28:05;3.0;73.0
79301;SHT31;68755;51.984;5.646;2024-01-16T10:30:39;3.0;73.1
79301;SHT31;68755;51.984;5.646;2024-01-16T10:33:15;3.0;72.6
79301;SHT31;68755;51.984;5.646;2024-01-16T10:35:45;2.9;73.1
79301;SHT31;68755;51.984;5.646;2024-01-16T10:38:20;2.9;73.1
79301;SHT31;68755;51.984;5.646;2024-01-16T10:41:06;2.9;73.4
79301;SHT31;68755;51.984;5.646;2024-01-16T10:43:36;2.8;73.8
79301;SHT31;68755;51.984;5.646;2024-01-16T10:46:09;2.8;73.7
79301;SHT31;68755;51.984;5.646;2024-01-16T10:48:42;2.8;73.6
79301;SHT31;68755;51.984;5.646;2024-01-16T10:51:15;2.8;74.0
79301;SHT31;68755;51.984;5.646;2024-01-16T10:53:45;2.8;73.9
79301;SHT31;68755;51.984;5.646;2024-01-16T10:56:17;2.8;74.5
79301;SHT31;68755;51.984;5.646;2024-01-16T10:58:52;2.8;74.9
79301;SHT31;68755;51.984;5.646;2024-01-16T11:01:25;2.8;74.1
79301;SHT31;68755;51.984;5.646;2024-01-16T11:03:56;2.8;74.1
79301;SHT31;68755;51.984;5.646;2024-01-16T11:06:27;2.8;74.0
79301;SHT31;68755;51.984;5.646;2024-01-16T11:08:59;2.8;74.3
79301;SHT31;68755;51.984;5.646;2024-01-16T11:11:30;2.9;74.6
79301;SHT31;68755;51.984;5.646;2024-01-16T11:14:03;2.9;74.9
79301;SHT31;68755;51.984;5.646;2024-01-16T11:16:33;2.9;74.5
79301;SHT31;68755;51.984;5.646;2024-01-16T11:19:04;2.9;74.7
79301;SHT31;68755;51.984;5.646;2024-01-16T11:21:37;2.9;75.3
79301;SHT31;68755;51.984;5.646;2024-01-16T11:24:07;3.0;74.9
79301;SHT31;68755;51.984;5.646;2024-01-16T11:26:40;3.0;74.3
79301;SHT31;68755;51.984;5.646;2024-01-16T11:29:35;3.0;74.5
79301;SHT31;68755;51.984;5.646;2024-01-16T11:32:06;3.0;73.5
79301;SHT31;68755;51.984;5.646;2024-01-16T11:34:54;3.0;73.8
79301;SHT31;68755;51.984;5.646;2024-01-16T11:37:27;3.0;74.0
79301;SHT31;68755;51.984;5.646;2024-01-16T11:42:20;3.0;74.0
79301;SHT31;68755;51.984;5.646;2024-01-16T11:44:54;3.1;74.0
79301;SHT31;68755;51.984;5.646;2024-01-16T11:47:24;3.1;73.6
79301;SHT31;68755;51.984;5.646;2024-01-16T11:50:09;3.1;74.0
79301;SHT31;68755;51.984;5.646;2024-01-16T11:52:43;3.1;73.6
79301;SHT31;68755;51.984;5.646;2024-01-16T11:55:31;3.1;73.0
79301;SHT31;68755;51.984;5.646;2024-01-16T11:58:27;3.1;73.0
79301;SHT31;68755;51.984;5.646;2024-01-16T12:01:00;3.1;73.4
79301;SHT31;68755;51.984;5.646;2024-01-16T12:03:32;3.1;74.1
79301;SHT31;68755;51.984;5.646;2024-01-16T12:06:02;3.1;73.9
79301;SHT31;68755;51.984;5.646;2024-01-16T12:08:34;3.2;73.6
79301;SHT31;68755;51.984;5.646;2024-01-16T12:11:05;3.2;73.3
79301;SHT31;68755;51.984;5.646;2024-01-16T12:13:34;3.2;72.6
79301;SHT31;68755;51.984;5.646;2024-01-16T12:16:05;3.2;72.8
79301;SHT31;68755;51.984;5.646;2024-01-16T12:18:37;3.2;73.0
79301;SHT31;68755;51.984;5.646;2024-01-16T12:21:10;3.2;73.7
79301;SHT31;68755;51.984;5.646;2024-01-16T12:23:40;3.3;73.6
79301;SHT31;68755;51.984;5.646;2024-01-16T12:26:21;3.3;73.4
79301;SHT31;68755;51.984;5.646;2024-01-16T12:28:52;3.3;72.7
79301;SHT31;68755;51.984;5.646;2024-01-16T12:31:22;3.3;72.7
79301;SHT31;68755;51.984;5.646;2024-01-16T12:33:52;3.4;72.7
79301;SHT31;68755;51.984;5.646;2024-01-16T12:36:22;3.4;72.3
79301;SHT31;68755;51.984;5.646;2024-01-16T12:38:56;3.4;72.1
79301;SHT31;68755;51.984;5.646;2024-01-16T12:41:27;3.5;72.3
79301;SHT31;68755;51.984;5.646;2024-01-16T12:43:58;3.5;71.9
79301;SHT31;68755;51.984;5.646;2024-01-16T12:46:27;3.5;70.7
79301;SHT31;68755;51.984;5.646;2024-01-16T12:49:02;3.5;71.0
79301;SHT31;68755;51.984;5.646;2024-01-16T12:51:33;3.5;71.2
79301;SHT31;68755;51.984;5.646;2024-01-16T12:54:13;3.5;70.9
79301;SHT31;68755;51.984;5.646;2024-01-16T12:56:44;3.5;71.6
79301;SHT31;68755;51.984;5.646;2024-01-16T12:59:14;3.5;71.5
79301;SHT31;68755;51.984;5.646;2024-01-16T13:01:45;3.5;71.3
79301;SHT31;68755;51.984;5.646;2024-01-16T13:04:16;3.5;71.8
79301;SHT31;68755;51.984;5.646;2024-01-16T13:06:46;3.5;71.5
79301;SHT31;68755;51.984;5.646;2024-01-16T13:09:17;3.5;71.8
79301;SHT31;68755;51.984;5.646;2024-01-16T13:11:49;3.5;72.2
79301;SHT31;68755;51.984;5.646;2024-01-16T13:14:19;3.5;72.0
79301;SHT31;68755;51.984;5.646;2024-01-16T13:16:51;3.5;71.3
79301;SHT31;68755;51.984;5.646;2024-01-16T13:19:23;3.6;71.1
79301;SHT31;68755;51.984;5.646;2024-01-16T13:21:55;3.6;71.3
79301;SHT31;68755;51.984;5.646;2024-01-16T13:24:26;3.6;71.1
79301;SHT31;68755;51.984;5.646;2024-01-16T13:26:56;3.6;70.9
79301;SHT31;68755;51.984;5.646;2024-01-16T13:29:25;3.7;70.1
79301;SHT31;68755;51.984;5.646;2024-01-16T13:31:56;3.7;70.9
79301;SHT31;68755;51.984;5.646;2024-01-16T13:34:26;3.7;70.5
79301;SHT31;68755;51.984;5.646;2024-01-16T13:36:58;3.8;71.0
79301;SHT31;68755;51.984;5.646;2024-01-16T13:39:29;3.8;69.3
79301;SHT31;68755;51.984;5.646;2024-01-16T13:42:02;3.8;68.9
79301;SHT31;68755;51.984;5.646;2024-01-16T13:44:34;3.9;68.7
79301;SHT31;68755;51.984;5.646;2024-01-16T13:47:04;3.9;68.3
79301;SHT31;68755;51.984;5.646;2024-01-16T13:49:34;3.9;68.2
79301;SHT31;68755;51.984;5.646;2024-01-16T13:52:04;3.9;67.5
79301;SHT31;68755;51.984;5.646;2024-01-16T13:54:36;3.9;68.3
79301;SHT31;68755;51.984;5.646;2024-01-16T13:57:06;3.9;67.7
79301;SHT31;68755;51.984;5.646;2024-01-16T13:59:36;3.9;67.0
79301;SHT31;68755;51.984;5.646;2024-01-16T14:02:06;3.9;68.1
79301;SHT31;68755;51.984;5.646;2024-01-16T14:04:37;3.9;68.4
79301;SHT31;68755;51.984;5.646;2024-01-16T14:07:07;3.9;69.1
79301;SHT31;68755;51.984;5.646;2024-01-16T14:09:37;3.9;68.3
79301;SHT31;68755;51.984;5.646;2024-01-16T14:12:09;3.9;68.6
79301;SHT31;68755;51.984;5.646;2024-01-16T14:14:40;3.9;67.5
79301;SHT31;68755;51.984;5.646;2024-01-16T14:17:11;3.9;66.9
79301;SHT31;68755;51.984;5.646;2024-01-16T14:19:42;3.9;67.2
79301;SHT31;68755;51.984;5.646;2024-01-16T14:22:12;3.8;66.5
79301;SHT31;68755;51.984;5.646;2024-01-16T14:24:41;3.8;66.8
79301;SHT31;68755;51.984;5.646;2024-01-16T14:27:15;3.8;66.7
79301;SHT31;68755;51.984;5.646;2024-01-16T14:29:45;3.8;66.1
79301;SHT31;68755;51.984;5.646;2024-01-16T14:32:14;3.7;66.2
79301;SHT31;68755;51.984;5.646;2024-01-16T14:34:44;3.7;67.1
79301;SHT31;68755;51.984;5.646;2024-01-16T14:37:13;3.7;67.0
79301;SHT31;68755;51.984;5.646;2024-01-16T14:39:44;3.7;67.1
79301;SHT31;68755;51.984;5.646;2024-01-16T14:42:13;3.6;67.3
79301;SHT31;68755;51.984;5.646;2024-01-16T14:44:44;3.6;67.1
79301;SHT31;68755;51.984;5.646;2024-01-16T14:47:13;3.6;66.8
79301;SHT31;68755;51.984;5.646;2024-01-16T14:49:43;3.6;66.9
79301;SHT31;68755;51.984;5.646;2024-01-16T14:52:13;3.5;67.9
79301;SHT31;68755;51.984;5.646;2024-01-16T14:54:42;3.5;67.9
79301;SHT31;68755;51.984;5.646;2024-01-16T14:57:12;3.5;68.3
79301;SHT31;68755;51.984;5.646;2024-01-16T14:59:42;3.5;67.8
79301;SHT31;68755;51.984;5.646;2024-01-16T15:02:12;3.5;67.6
79301;SHT31;68755;51.984;5.646;2024-01-16T15:04:43;3.4;68.1
79301;SHT31;68755;51.984;5.646;2024-01-16T15:07:13;3.4;68.8
79301;SHT31;68755;51.984;5.646;2024-01-16T15:09:42;3.4;68.5
79301;SHT31;68755;51.984;5.646;2024-01-16T15:12:13;3.4;69.1
79301;SHT31;68755;51.984;5.646;2024-01-16T15:14:42;3.4;68.9
79301;SHT31;68755;51.984;5.646;2024-01-16T15:17:12;3.4;68.9
79301;SHT31;68755;51.984;5.646;2024-01-16T15:19:41;3.3;69.1
79301;SHT31;68755;51.984;5.646;2024-01-16T15:22:11;3.3;68.9
79301;SHT31;68755;51.984;5.646;2024-01-16T15:24:41;3.3;69.2
79301;SHT31;68755;51.984;5.646;2024-01-16T15:27:11;3.3;69.2
79301;SHT31;68755;51.984;5.646;2024-01-16T15:29:41;3.3;68.9
79301;SHT31;68755;51.984;5.646;2024-01-16T15:32:10;3.2;69.0
79301;SHT31;68755;51.984;5.646;2024-01-16T15:34:40;3.2;68.9
79301;SHT31;68755;51.984;5.646;2024-01-16T15:37:10;3.2;68.6
79301;SHT31;68755;51.984;5.646;2024-01-16T15:39:40;3.2;68.9
79301;SHT31;68755;51.984;5.646;2024-01-16T15:42:09;3.2;69.4
79301;SHT31;68755;51.984;5.646;2024-01-16T15:44:39;3.1;69.8
79301;SHT31;68755;51.984;5.646;2024-01-16T15:47:09;3.1;69.2
79301;SHT31;68755;51.984;5.646;2024-01-16T15:49:39;3.1;69.4
79301;SHT31;68755;51.984;5.646;2024-01-16T15:52:09;3.1;69.8
79301;SHT31;68755;51.984;5.646;2024-01-16T15:54:39;3.1;69.2
79301;SHT31;68755;51.984;5.646;2024-01-16T15:57:09;3.0;69.6
79301;SHT31;68755;51.984;5.646;2024-01-16T15:59:39;3.0;69.4
79301;SHT31;68755;51.984;5.646;2024-01-16T16:02:09;3.0;69.9
79301;SHT31;68755;51.984;5.646;2024-01-16T16:04:38;3.0;69.9
79301;SHT31;68755;51.984;5.646;2024-01-16T16:07:09;3.0;69.8
79301;SHT31;68755;51.984;5.646;2024-01-16T16:09:40;3.0;70.2
79301;SHT31;68755;51.984;5.646;2024-01-16T16:12:10;3.0;70.1
79301;SHT31;68755;51.984;5.646;2024-01-16T16:14:39;3.0;70.3
79301;SHT31;68755;51.984;5.646;2024-01-16T16:17:09;3.0;70.2
79301;SHT31;68755;51.984;5.646;2024-01-16T16:19:40;3.0;70.2
79301;SHT31;68755;51.984;5.646;2024-01-16T16:22:10;3.1;70.2
79301;SHT31;68755;51.984;5.646;2024-01-16T16:24:41;3.1;69.6
79301;SHT31;68755;51.984;5.646;2024-01-16T16:27:23;3.1;69.5
79301;SHT31;68755;51.984;5.646;2024-01-16T16:29:54;3.1;69.6
79301;SHT31;68755;51.984;5.646;2024-01-16T16:32:24;3.1;69.8
79301;SHT31;68755;51.984;5.646;2024-01-16T16:34:55;3.1;69.7
79301;SHT31;68755;51.984;5.646;2024-01-16T16:37:25;3.2;69.8
79301;SHT31;68755;51.984;5.646;2024-01-16T16:39:55;3.2;69.9